createdAt,value
2023-03-18T00:00:12.618Z,5.20
2023-03-18T00:02:40.423Z,5.17
2023-03-18T00:05:08.521Z,6.33
2023-03-18T00:07:37.301Z,5.60
2023-03-18T00:10:06.482Z,4.73
2023-03-18T00:12:33.426Z,5.90
2023-03-18T00:15:00.809Z,5.83
2023-03-18T00:17:27.952Z,4.40
2023-03-18T00:19:55.153Z,6.50
2023-03-18T00:22:22.601Z,7.87
2023-03-18T00:24:49.214Z,5.30
2023-03-18T00:27:16.127Z,5.07
2023-03-18T00:29:42.898Z,4.40
2023-03-18T00:32:09.834Z,6.60
2023-03-18T00:34:36.496Z,7.67
2023-03-18T00:37:03.702Z,9.93
2023-03-18T00:39:32.894Z,6.40
2023-03-18T00:42:07.959Z,7.43
2023-03-18T00:44:34.587Z,6.80
2023-03-18T00:47:01.397Z,4.70
2023-03-18T00:49:28.040Z,6.80
2023-03-18T00:51:54.947Z,5.07
2023-03-18T00:54:22.466Z,4.43
2023-03-18T00:56:49.462Z,6.90
2023-03-18T00:59:16.449Z,4.43
2023-03-18T01:01:44.344Z,3.93
2023-03-18T01:04:11.396Z,5.80
2023-03-18T01:06:39.030Z,5.17
2023-03-18T01:09:10.468Z,6.57
2023-03-18T01:11:39.261Z,6.77
2023-03-18T01:14:06.084Z,7.23
2023-03-18T01:16:32.740Z,5.10
2023-03-18T01:18:59.989Z,5.10
2023-03-18T01:21:26.694Z,6.03
2023-03-18T01:23:56.908Z,5.00
2023-03-18T01:26:26.013Z,4.33
2023-03-18T01:28:54.431Z,3.80
2023-03-18T01:31:21.761Z,4.37
2023-03-18T01:33:48.646Z,5.13
2023-03-18T01:36:15.560Z,3.63
2023-03-18T01:38:43.377Z,3.80
2023-03-18T01:41:13.059Z,4.87
2023-03-18T01:43:42.701Z,4.90
2023-03-18T01:46:43.419Z,5.73
2023-03-18T01:49:27.604Z,4.97
2023-03-18T01:51:58.959Z,3.93
2023-03-18T01:54:28.457Z,5.13
2023-03-18T01:56:57.150Z,4.07
2023-03-18T01:59:28.633Z,4.63
2023-03-18T02:02:01.832Z,4.83
2023-03-18T02:04:36.367Z,6.77
2023-03-18T02:07:03.817Z,3.40
2023-03-18T02:09:31.731Z,4.10
2023-03-18T02:12:01.683Z,3.73
2023-03-18T02:14:28.772Z,3.60
2023-03-18T02:17:01.171Z,3.70
2023-03-18T02:19:41.533Z,4.47
2023-03-18T02:22:29.669Z,8.23
2023-03-18T02:25:27.689Z,5.87
2023-03-18T02:28:01.643Z,3.57
2023-03-18T02:30:37.122Z,7.67
2023-03-18T02:33:07.313Z,6.30
2023-03-18T02:35:35.499Z,3.43
2023-03-18T02:38:04.595Z,4.87
2023-03-18T02:40:34.800Z,5.47
2023-03-18T02:43:28.079Z,4.53
2023-03-18T02:46:14.581Z,4.67
2023-03-18T02:48:44.905Z,5.17
2023-03-18T02:51:14.374Z,4.57
2023-03-18T02:53:41.710Z,6.80
2023-03-18T02:56:08.885Z,4.40
2023-03-18T02:58:36.745Z,4.57
2023-03-18T03:01:06.461Z,6.53
2023-03-18T03:03:35.018Z,3.77
2023-03-18T03:06:03.210Z,4.10
2023-03-18T03:08:30.647Z,4.50
2023-03-18T03:10:57.872Z,3.57
2023-03-18T03:13:25.638Z,5.50
2023-03-18T03:15:54.082Z,4.70
2023-03-18T03:18:21.478Z,4.40
2023-03-18T03:20:49.871Z,6.27
2023-03-18T03:23:17.518Z,5.33
2023-03-18T03:25:47.412Z,5.00
2023-03-18T03:28:16.543Z,5.80
2023-03-18T03:30:43.663Z,4.23
2023-03-18T03:33:10.931Z,3.73
2023-03-18T03:35:39.155Z,4.40
2023-03-18T03:38:06.648Z,5.73
2023-03-18T03:40:33.918Z,5.77
2023-03-18T03:43:00.772Z,5.13
2023-03-18T03:45:27.628Z,6.53
2023-03-18T03:47:54.338Z,4.03
2023-03-18T03:50:21.566Z,5.47
2023-03-18T03:52:49.134Z,4.17
2023-03-18T03:55:19.349Z,5.17
2023-03-18T03:57:46.927Z,7.03
2023-03-18T04:00:16.984Z,4.57
2023-03-18T04:02:50.011Z,4.60
2023-03-18T04:05:19.886Z,4.93
2023-03-18T04:07:47.548Z,4.23
2023-03-18T04:10:17.335Z,4.40
2023-03-18T04:12:45.792Z,6.53
2023-03-18T04:15:14.625Z,4.60
2023-03-18T04:17:43.191Z,5.10
2023-03-18T04:20:11.716Z,4.23
2023-03-18T04:22:39.596Z,5.97
2023-03-18T04:25:11.040Z,7.50
2023-03-18T04:27:39.352Z,6.00
2023-03-18T04:30:09.779Z,7.53
2023-03-18T04:32:46.542Z,7.03
2023-03-18T04:35:13.209Z,7.23
2023-03-18T04:37:39.857Z,8.00
2023-03-18T04:40:07.415Z,6.70
2023-03-18T04:42:34.986Z,8.97
2023-03-18T04:45:02.434Z,6.30
2023-03-18T04:47:29.221Z,8.43
2023-03-18T04:49:56.691Z,9.73
2023-03-18T04:52:24.373Z,6.73
2023-03-18T04:54:51.089Z,10.87
2023-03-18T04:57:18.289Z,9.13
2023-03-18T04:59:50.354Z,9.53
2023-03-18T05:02:17.074Z,7.23
2023-03-18T05:04:43.886Z,9.77
2023-03-18T05:07:15.294Z,8.23
2023-03-18T05:09:47.108Z,9.27
2023-03-18T05:12:16.018Z,10.37
2023-03-18T05:14:43.696Z,6.23
2023-03-18T05:17:17.277Z,8.83
2023-03-18T05:19:53.229Z,8.77
2023-03-18T05:22:22.752Z,9.83
2023-03-18T05:24:55.693Z,8.43
2023-03-18T05:27:24.959Z,8.77
2023-03-18T05:29:58.861Z,8.03
2023-03-18T05:32:37.016Z,8.50
2023-03-18T05:35:07.124Z,10.27
2023-03-18T05:37:43.317Z,8.37
2023-03-18T05:40:11.850Z,7.97
2023-03-18T05:42:54.897Z,7.67
2023-03-18T05:45:24.387Z,9.47
2023-03-18T05:47:54.686Z,8.87
2023-03-18T05:50:35.531Z,11.23
2023-03-18T05:53:06.200Z,11.33
2023-03-18T05:55:37.073Z,7.47
2023-03-18T05:58:04.559Z,9.67
2023-03-18T06:00:34.280Z,9.20
2023-03-18T06:03:02.871Z,10.53
2023-03-18T06:05:31.143Z,9.00
2023-03-18T06:07:58.574Z,10.63
2023-03-18T06:10:25.680Z,12.47
2023-03-18T06:12:55.244Z,10.50
2023-03-18T06:15:22.126Z,9.77
2023-03-18T06:17:50.883Z,9.53
2023-03-18T06:20:19.364Z,14.53
2023-03-18T06:22:49.574Z,10.07
2023-03-18T06:25:19.164Z,8.47
2023-03-18T06:27:46.660Z,13.17
2023-03-18T06:30:15.568Z,12.00
2023-03-18T06:32:42.872Z,12.20
2023-03-18T06:35:11.599Z,11.63
2023-03-18T06:37:39.979Z,11.13
2023-03-18T06:40:09.473Z,10.60
2023-03-18T06:42:36.690Z,10.67
2023-03-18T06:45:11.224Z,11.57
2023-03-18T06:48:00.686Z,10.27
2023-03-18T06:50:27.701Z,12.93
2023-03-18T06:52:54.633Z,11.70
2023-03-18T06:55:27.990Z,12.93
2023-03-18T06:57:56.427Z,12.50
2023-03-18T07:00:29.106Z,13.97
2023-03-18T07:02:55.730Z,11.30
2023-03-18T07:05:26.332Z,11.93
2023-03-18T07:07:54.250Z,13.33
2023-03-18T07:10:24.504Z,10.73
2023-03-18T07:12:54.241Z,13.07
2023-03-18T07:15:22.502Z,11.67
2023-03-18T07:17:54.857Z,12.53
2023-03-18T07:20:22.349Z,11.73
2023-03-18T07:22:49.370Z,13.67
2023-03-18T07:25:15.978Z,9.83
2023-03-18T07:27:42.579Z,9.93
2023-03-18T07:30:10.097Z,13.97
2023-03-18T07:32:38.319Z,12.17
2023-03-18T07:35:06.281Z,11.40
2023-03-18T07:37:33.535Z,10.23
2023-03-18T07:40:00.169Z,14.37
2023-03-18T07:42:26.788Z,10.87
2023-03-18T07:44:53.519Z,12.60
2023-03-18T07:47:20.848Z,14.10
2023-03-18T07:49:47.624Z,13.03
2023-03-18T07:52:14.887Z,15.50
2023-03-18T07:54:41.845Z,15.07
2023-03-18T07:57:08.623Z,15.57
2023-03-18T07:59:35.574Z,12.17
2023-03-18T08:02:02.721Z,14.10
2023-03-18T08:04:29.829Z,15.00
2023-03-18T08:06:57.858Z,11.63
2023-03-18T08:09:25.041Z,12.07
2023-03-18T08:11:51.603Z,12.43
2023-03-18T08:14:18.391Z,11.90
2023-03-18T08:16:45.156Z,14.53
2023-03-18T08:19:11.991Z,13.40
2023-03-18T08:21:39.682Z,11.13
2023-03-18T08:24:07.122Z,13.30
2023-03-18T08:26:34.123Z,14.93
2023-03-18T08:29:00.721Z,12.50
2023-03-18T08:31:27.586Z,14.20
2023-03-18T08:33:56.151Z,10.83
2023-03-18T08:36:23.417Z,13.87
2023-03-18T08:38:50.592Z,14.10
2023-03-18T08:41:17.516Z,12.50
2023-03-18T08:43:45.025Z,13.07
2023-03-18T08:46:11.705Z,18.40
2023-03-18T08:48:38.499Z,13.20
2023-03-18T08:51:08.112Z,12.97
2023-03-18T08:53:35.542Z,11.63
2023-03-18T08:56:03.094Z,15.80
2023-03-18T08:58:30.185Z,13.77
2023-03-18T09:00:57.075Z,15.27
2023-03-18T09:03:24.834Z,12.53
2023-03-18T09:05:53.314Z,10.37
2023-03-18T09:08:19.936Z,11.57
2023-03-18T09:10:46.829Z,12.27
2023-03-18T09:13:13.851Z,10.70
2023-03-18T09:15:42.060Z,14.20
2023-03-18T09:18:12.206Z,10.97
2023-03-18T09:20:40.254Z,10.40
2023-03-18T09:23:08.765Z,13.43
2023-03-18T09:25:35.516Z,12.20
2023-03-18T09:28:02.599Z,10.93
2023-03-18T09:30:30.143Z,12.87
2023-03-18T09:32:56.868Z,11.70
2023-03-18T09:35:24.107Z,14.83
2023-03-18T09:37:51.918Z,15.13
2023-03-18T09:40:26.405Z,13.63
2023-03-18T09:43:20.578Z,13.13
2023-03-18T09:46:00.980Z,12.77
2023-03-18T09:48:54.247Z,15.67
2023-03-18T09:51:50.134Z,9.90
2023-03-18T09:54:33.218Z,14.87
2023-03-18T09:57:00.704Z,5.40
2023-03-18T09:59:41.804Z,7.97
2023-03-18T10:02:34.879Z,12.07
2023-03-18T10:05:10.508Z,13.10
2023-03-18T10:07:42.752Z,11.70
2023-03-18T10:10:33.876Z,9.57
2023-03-18T10:13:25.794Z,7.63
2023-03-18T10:15:58.440Z,11.40
2023-03-18T10:18:32.478Z,13.27
2023-03-18T10:21:31.120Z,10.97
2023-03-18T10:24:29.210Z,9.30
2023-03-18T10:27:09.427Z,8.80
2023-03-18T10:29:43.671Z,10.43
2023-03-18T10:32:49.403Z,9.70
2023-03-18T10:35:42.156Z,10.37
2023-03-18T10:38:22.994Z,10.57
2023-03-18T10:40:49.855Z,10.47
2023-03-18T10:43:25.012Z,10.90
2023-03-18T10:46:04.201Z,10.03
2023-03-18T10:48:38.352Z,14.73
2023-03-18T10:51:25.931Z,9.97
2023-03-18T10:54:09.362Z,11.97
2023-03-18T10:56:36.503Z,11.53
2023-03-18T10:59:11.817Z,13.43
2023-03-18T11:01:39.328Z,10.07
2023-03-18T11:04:06.845Z,13.60
2023-03-18T11:06:41.686Z,12.63
2023-03-18T11:09:20.027Z,14.77
2023-03-18T11:11:55.636Z,12.37
2023-03-18T11:14:26.458Z,13.70
2023-03-18T11:17:19.106Z,8.03
2023-03-18T11:19:48.664Z,12.90
2023-03-18T11:22:24.461Z,11.90
2023-03-18T11:25:01.939Z,12.83
2023-03-18T11:27:36.379Z,11.30
2023-03-18T11:30:34.328Z,12.93
2023-03-18T11:33:12.911Z,11.03
2023-03-18T11:35:46.246Z,10.77
2023-03-18T11:38:28.576Z,10.33
2023-03-18T11:41:07.088Z,10.40
2023-03-18T11:43:34.787Z,11.67
2023-03-18T11:46:05.030Z,11.03
2023-03-18T11:48:37.854Z,8.03
2023-03-18T11:51:26.560Z,9.67
2023-03-18T11:54:09.441Z,11.37
2023-03-18T11:56:45.074Z,9.87
2023-03-18T11:59:17.995Z,9.87
2023-03-18T12:02:20.906Z,12.00
2023-03-18T12:05:16.724Z,5.90
2023-03-18T12:07:49.548Z,11.60
2023-03-18T12:10:24.690Z,11.57
2023-03-18T12:13:17.856Z,6.43
2023-03-18T12:16:06.425Z,10.73
2023-03-18T12:18:43.018Z,8.37
2023-03-18T12:21:45.874Z,9.83
2023-03-18T12:24:39.919Z,9.23
2023-03-18T12:27:12.777Z,9.33
2023-03-18T12:30:25.008Z,10.17
2023-03-18T12:32:54.453Z,8.53
2023-03-18T12:35:46.494Z,6.87
2023-03-18T12:38:42.113Z,8.87
2023-03-18T12:41:35.436Z,7.07
2023-03-18T12:44:19.466Z,6.97
2023-03-18T12:46:56.860Z,4.83
2023-03-18T12:49:29.608Z,5.87
2023-03-18T12:52:06.368Z,10.43
2023-03-18T12:54:40.430Z,8.90
2023-03-18T12:57:26.760Z,6.30
2023-03-18T12:59:59.007Z,7.60
2023-03-18T13:02:49.940Z,8.30
2023-03-18T13:05:25.080Z,6.87
2023-03-18T13:08:28.454Z,4.10
2023-03-18T13:11:05.187Z,6.53
2023-03-18T13:13:35.696Z,8.57
2023-03-18T13:16:04.210Z,6.47
2023-03-18T13:18:42.984Z,7.10
2023-03-18T13:21:14.783Z,8.77
2023-03-18T13:24:06.229Z,6.67
2023-03-18T13:26:50.558Z,3.53
2023-03-18T13:29:37.879Z,6.87
2023-03-18T13:32:26.154Z,8.10
2023-03-18T13:35:25.795Z,8.93
2023-03-18T13:38:29.798Z,8.63
2023-03-18T13:41:09.799Z,10.17
2023-03-18T13:43:49.008Z,10.30
2023-03-18T13:46:23.627Z,10.43
2023-03-18T13:49:01.408Z,9.57
2023-03-18T13:51:28.572Z,12.20
2023-03-18T13:54:00.740Z,12.50
2023-03-18T13:56:32.013Z,9.77
2023-03-18T13:59:02.894Z,10.70
2023-03-18T14:01:50.733Z,13.83
2023-03-18T14:04:49.013Z,18.60
2023-03-18T14:07:21.704Z,8.80
2023-03-18T14:10:18.234Z,12.70
2023-03-18T14:12:49.553Z,9.70
2023-03-18T14:15:16.205Z,15.37
2023-03-18T14:17:48.439Z,9.83
2023-03-18T14:20:14.988Z,12.47
2023-03-18T14:22:43.468Z,12.83
2023-03-18T14:25:13.141Z,12.83
2023-03-18T14:28:06.783Z,10.33
2023-03-18T14:30:36.892Z,10.40
2023-03-18T14:33:31.554Z,13.60
2023-03-18T14:36:09.945Z,14.10
2023-03-18T14:38:50.386Z,12.40
2023-03-18T14:41:32.647Z,12.43
2023-03-18T14:44:20.739Z,10.63
2023-03-18T14:46:51.750Z,11.77
2023-03-18T14:49:43.402Z,15.40
2023-03-18T14:52:38.661Z,11.07
2023-03-18T14:55:20.647Z,11.67
2023-03-18T14:57:47.317Z,14.10
2023-03-18T15:00:16.023Z,10.10
2023-03-18T15:02:45.140Z,11.70
2023-03-18T15:05:17.837Z,12.50
2023-03-18T15:07:49.621Z,12.23
2023-03-18T15:10:22.217Z,10.50
2023-03-18T15:13:04.485Z,11.43
2023-03-18T15:15:32.106Z,11.70
2023-03-18T15:18:15.072Z,11.17
2023-03-18T15:20:42.386Z,9.77
2023-03-18T15:23:09.354Z,11.33
2023-03-18T15:25:38.473Z,12.53
2023-03-18T15:28:06.127Z,13.13
2023-03-18T15:30:33.730Z,10.63
2023-03-18T15:33:17.055Z,9.87
2023-03-18T15:35:44.791Z,9.10
2023-03-18T15:38:16.462Z,33.03
2023-03-18T15:40:55.760Z,8.93
2023-03-18T15:43:30.408Z,8.53
2023-03-18T15:45:59.772Z,11.03
2023-03-18T15:48:40.219Z,13.03
2023-03-18T15:51:23.184Z,9.07
2023-03-18T15:53:53.451Z,9.87
2023-03-18T15:56:27.000Z,12.93
2023-03-18T15:59:12.133Z,13.40
2023-03-18T16:01:40.047Z,12.73
2023-03-18T16:04:12.184Z,12.60
2023-03-18T16:06:40.230Z,12.90
2023-03-18T16:09:21.958Z,10.33
2023-03-18T16:11:53.353Z,9.17
2023-03-18T16:14:22.569Z,16.17
2023-03-18T16:16:49.917Z,11.13
2023-03-18T16:19:24.959Z,12.03
2023-03-18T16:21:52.748Z,20.50
2023-03-18T16:24:19.618Z,11.93
2023-03-18T16:26:46.845Z,12.90
2023-03-18T16:29:27.731Z,11.33
2023-03-18T16:31:54.375Z,12.00
2023-03-18T16:34:21.910Z,15.43
2023-03-18T16:36:53.405Z,11.47
2023-03-18T16:39:27.016Z,9.80
2023-03-18T16:41:53.620Z,11.00
2023-03-18T16:44:22.446Z,10.93
2023-03-18T16:46:56.366Z,10.00
2023-03-18T16:49:41.819Z,12.47
2023-03-18T16:52:12.092Z,11.27
2023-03-18T16:54:39.317Z,11.30
2023-03-18T16:57:06.858Z,10.73
2023-03-18T16:59:35.899Z,12.10
2023-03-18T17:02:04.014Z,11.63
2023-03-18T17:04:35.601Z,13.43
2023-03-18T17:07:04.474Z,11.50
2023-03-18T17:09:31.877Z,11.00
2023-03-18T17:12:01.980Z,10.20
2023-03-18T17:14:42.283Z,10.83
2023-03-18T17:17:30.803Z,11.97
2023-03-18T17:19:59.560Z,11.57
2023-03-18T17:22:32.527Z,17.80
2023-03-18T17:25:01.251Z,13.93
2023-03-18T17:27:32.256Z,9.93
2023-03-18T17:29:58.848Z,11.23
2023-03-18T17:32:25.934Z,12.83
2023-03-18T17:34:54.211Z,9.80
2023-03-18T17:37:21.374Z,13.17
2023-03-18T17:39:47.969Z,10.77
2023-03-18T17:42:32.403Z,10.20
2023-03-18T17:45:17.861Z,12.00
2023-03-18T17:47:44.435Z,13.37
2023-03-18T17:50:17.095Z,13.63
2023-03-18T17:52:45.248Z,14.13
2023-03-18T17:55:24.529Z,14.53
2023-03-18T17:57:51.144Z,15.17
2023-03-18T18:00:27.281Z,15.47
2023-03-18T18:02:54.663Z,13.63
2023-03-18T18:05:22.897Z,13.00
2023-03-18T18:07:51.319Z,14.10
2023-03-18T18:10:20.118Z,14.20
2023-03-18T18:12:49.826Z,12.67
2023-03-18T18:15:19.673Z,13.20
2023-03-18T18:17:48.354Z,16.13
2023-03-18T18:20:17.231Z,18.20
2023-03-18T18:22:46.833Z,14.93
2023-03-18T18:25:19.663Z,15.13
2023-03-18T18:27:47.706Z,14.80
2023-03-18T18:30:19.380Z,14.50
2023-03-18T18:32:46.431Z,14.30
2023-03-18T18:35:18.819Z,13.80
2023-03-18T18:37:47.602Z,16.10
2023-03-18T18:40:16.348Z,13.97
2023-03-18T18:42:43.663Z,13.30
2023-03-18T18:45:16.571Z,13.23
2023-03-18T18:47:43.997Z,16.77
2023-03-18T18:50:19.643Z,14.37
2023-03-18T18:52:46.455Z,14.13
2023-03-18T18:55:13.137Z,14.87
2023-03-18T18:57:41.720Z,13.93
2023-03-18T19:00:26.786Z,13.00
2023-03-18T19:02:57.034Z,11.20
2023-03-18T19:05:24.075Z,16.20
2023-03-18T19:07:52.573Z,12.67
2023-03-18T19:10:19.328Z,11.23
2023-03-18T19:12:46.219Z,12.40
2023-03-18T19:15:15.492Z,12.50
2023-03-18T19:17:43.278Z,13.53
2023-03-18T19:20:29.589Z,12.07
2023-03-18T19:22:57.413Z,10.23
2023-03-18T19:25:27.611Z,11.80
2023-03-18T19:27:54.793Z,14.03
2023-03-18T19:30:23.686Z,12.43
2023-03-18T19:32:50.673Z,11.33
2023-03-18T19:35:17.380Z,14.10
2023-03-18T19:37:45.793Z,11.70
2023-03-18T19:40:31.262Z,11.83
2023-03-18T19:42:57.866Z,13.57
2023-03-18T19:45:24.530Z,11.33
2023-03-18T19:47:51.431Z,14.90
2023-03-18T19:50:20.212Z,13.87
2023-03-18T19:52:47.013Z,12.73
2023-03-18T19:55:15.649Z,15.10
2023-03-18T19:57:44.941Z,14.30
2023-03-18T20:00:24.272Z,14.07
2023-03-18T20:02:51.050Z,20.67
2023-03-18T20:05:23.769Z,15.63
2023-03-18T20:07:50.489Z,13.27
2023-03-18T20:10:19.013Z,18.80
2023-03-18T20:12:48.088Z,14.83
2023-03-18T20:15:24.646Z,17.17
2023-03-18T20:17:52.965Z,18.17
2023-03-18T20:20:23.823Z,18.07
2023-03-18T20:23:02.694Z,19.67
2023-03-18T20:25:31.771Z,16.57
2023-03-18T20:27:58.694Z,17.03
2023-03-18T20:30:31.127Z,17.07
2023-03-18T20:32:58.407Z,22.43
2023-03-18T20:35:27.498Z,17.40
2023-03-18T20:37:56.158Z,15.40
2023-03-18T20:40:26.453Z,16.00
2023-03-18T20:42:53.630Z,15.70
2023-03-18T20:45:21.533Z,14.60
2023-03-18T20:47:48.209Z,13.67
2023-03-18T20:50:21.074Z,15.10
2023-03-18T20:52:48.673Z,14.67
2023-03-18T20:55:27.835Z,12.43
2023-03-18T20:57:54.882Z,14.20
2023-03-18T21:00:25.253Z,11.87
2023-03-18T21:02:54.122Z,17.30
2023-03-18T21:05:21.711Z,15.10
2023-03-18T21:07:49.021Z,14.47
2023-03-18T21:10:18.614Z,14.00
2023-03-18T21:12:46.127Z,14.60
2023-03-18T21:15:25.299Z,15.07
2023-03-18T21:17:52.335Z,12.60
2023-03-18T21:20:22.876Z,14.87
2023-03-18T21:22:50.779Z,12.83
2023-03-18T21:25:23.049Z,12.60
2023-03-18T21:27:50.642Z,15.10
2023-03-18T21:30:19.242Z,12.20
2023-03-18T21:32:46.226Z,15.33
2023-03-18T21:35:19.071Z,13.33
2023-03-18T21:37:45.915Z,11.47
2023-03-18T21:40:15.266Z,13.40
2023-03-18T21:42:43.582Z,11.60
2023-03-18T21:45:12.407Z,13.83
2023-03-18T21:47:39.021Z,12.83
2023-03-18T21:50:06.823Z,13.53
2023-03-18T21:52:37.054Z,12.20
2023-03-18T21:55:05.922Z,10.93
2023-03-18T21:57:32.570Z,14.20
2023-03-18T21:59:59.148Z,13.60
2023-03-18T22:02:31.463Z,13.13
2023-03-18T22:05:04.827Z,10.70
2023-03-18T22:07:32.067Z,13.80
2023-03-18T22:10:00.573Z,13.83
2023-03-18T22:12:30.120Z,13.83
2023-03-18T22:14:57.577Z,11.37
2023-03-18T22:17:27.107Z,12.90
2023-03-18T22:19:54.917Z,14.00
2023-03-18T22:22:27.187Z,11.53
2023-03-18T22:24:53.787Z,12.50
2023-03-18T22:27:29.586Z,11.77
2023-03-18T22:29:58.339Z,15.73
2023-03-18T22:32:41.480Z,15.27
2023-03-18T22:35:20.687Z,12.17
2023-03-18T22:37:48.022Z,14.23
2023-03-18T22:40:20.766Z,15.30
2023-03-18T22:42:49.723Z,10.87
2023-03-18T22:45:31.345Z,13.80
2023-03-18T22:48:01.259Z,9.33
2023-03-18T22:50:31.240Z,10.30
2023-03-18T22:53:01.027Z,9.97
2023-03-18T22:55:34.639Z,10.90
2023-03-18T22:58:01.715Z,10.73
2023-03-18T23:00:38.276Z,12.47
2023-03-18T23:03:23.340Z,11.00
2023-03-18T23:05:52.308Z,11.87
2023-03-18T23:08:20.870Z,9.47
2023-03-18T23:10:49.620Z,11.07
2023-03-18T23:13:34.486Z,11.43
2023-03-18T23:16:04.075Z,13.00
2023-03-18T23:18:31.196Z,9.63
2023-03-18T23:20:57.858Z,8.13
2023-03-18T23:23:24.554Z,8.57
2023-03-18T23:25:52.401Z,9.57
2023-03-18T23:28:19.206Z,8.20
2023-03-18T23:30:49.320Z,8.93
2023-03-18T23:33:16.794Z,8.50
2023-03-18T23:35:44.162Z,9.10
2023-03-18T23:38:11.769Z,9.33
2023-03-18T23:40:38.646Z,9.33
2023-03-18T23:43:05.351Z,9.93
2023-03-18T23:45:32.420Z,11.17
2023-03-18T23:47:59.300Z,11.13
2023-03-18T23:50:26.159Z,14.23
2023-03-18T23:52:52.840Z,8.77
2023-03-18T23:55:33.703Z,10.03
2023-03-18T23:58:01.249Z,9.77
